Date,TemperatureHighF,TemperatureAvgF,TemperatureLowF,DewpointHighF,DewpointAvgF,DewpointLowF,HumidityHigh,HumidityAvg,HumidityLow,PressureMaxIn,PressureMinIn,WindSpeedMaxMPH,WindSpeedAvgMPH,GustSpeedMaxMPH,PrecipitationSumIn
2013-1-1,37.4,37.4,37.4,29.9,29.9,29.9,74,74,74,29.83,29.83,11,11,13,0.00
2013-1-2,37.4,37.4,37.4,29.9,29.9,29.9,74,74,74,29.83,29.83,11,11,13,0.00
2013-1-3,37.4,24.1,8.6,29.9,14.7,1.2,78,68,49,30.07,29.78,11,4,14,0.07
2013-1-4,37.6,31.1,22.6,23.2,19.9,14.4,75,63,46,30.06,29.90,17,6,22,0.00
2013-1-5,41.7,29.2,17.1,30.7,21.8,11.7,90,74,57,30.09,29.88,11,3,14,0.00
2013-1-6,38.5,34.4,25.7,33.0,26.0,18.1,82,71,61,30.13,29.66,18,6,24,0.00
2013-1-7,38.5,26.9,15.8,27.8,19.8,10.5,85,75,59,30.13,29.94,8,2,9,0.00
2013-1-8,49.5,33.0,20.1,33.6,25.5,16.2,86,75,53,29.98,29.80,11,2,12,0.00
2013-1-9,54.0,42.9,31.6,45.4,38.1,27.4,99,84,66,30.15,29.81,15,3,17,0.04
2013-1-10,47.3,40.1,32.0,44.9,36.7,30.2,95,88,67,29.98,29.50,9,3,11,0.08
2013-1-11,62.2,55.6,46.4,55.6,50.8,43.9,99,84,66,29.51,29.32,24,8,28,0.47
2013-1-12,67.5,58.6,48.7,63.6,55.7,46.8,99,90,77,29.48,29.16,23,6,28,0.07
2013-1-13,68.0,46.9,29.1,62.8,45.3,23.1,99,94,78,29.69,29.09,32,7,40,1.24
2013-1-14,29.1,25.9,24.1,23.1,17.5,15.5,78,70,61,29.88,29.69,8,0,11,0.00
2013-1-15,34.5,28.9,23.7,24.2,20.1,17.2,77,69,56,29.81,29.46,10,2,13,0.00
2013-1-16,36.9,33.6,31.8,26.4,23.7,18.7,79,67,48,29.59,29.30,11,4,13,0.00
2013-1-17,45.3,35.2,28.9,32.7,24.6,16.1,85,66,50,29.89,29.45,16,4,24,0.00
2013-1-18,42.4,32.0,19.8,26.8,19.4,13.5,79,60,44,29.90,29.69,17,6,21,0.00
2013-1-19,57.0,46.9,36.0,34.0,27.3,22.1,63,47,30,29.70,29.42,27,14,34,0.05
2013-1-20,48.4,36.4,28.8,36.8,12.3,-1.3,71,39,20,29.76,29.46,14,6,21,0.00
2013-1-21,28.8,22.5,14.5,13.3,1.9,-11.7,60,42,23,29.81,29.63,16,7,23,0.00
2013-1-22,21.4,14.4,7.7,-2.3,-10.6,-15.4,44,32,21,29.86,29.63,15,5,18,0.00
2013-1-23,17.2,13.5,11.3,-0.3,-2.1,-11.1,54,50,27,29.83,29.77,7,1,10,0.00
2013-1-24,26.1,16.1,13.1,-0.3,-2.7,-10.5,54,45,20,29.92,29.73,9,2,13,0.00
2013-1-25,29.3,24.6,21.7,19.2,9.8,-7.3,78,56,25,29.73,29.42,14,5,16,0.00
2013-1-26,24.4,20.0,19.4,17.8,13.6,13.1,78,76,71,29.57,29.48,4,0,5,0.00
2013-1-27,19.4,19.4,19.4,13.1,13.1,13.1,76,76,76,29.56,29.56,0,0,1,0.00
2013-1-28,19.4,19.4,19.4,13.1,13.1,13.1,76,76,76,29.56,29.56,0,0,1,0.00
2013-1-29,68.4,27.4,19.4,59.8,20.9,13.1,79,76,73,29.92,29.56,35,4,45,0.56
2013-1-30,69.1,51.0,31.1,60.9,46.1,21.1,98,84,64,29.91,29.47,36,13,45,1.54
2013-1-31,33.1,27.6,15.6,24.5,15.2,1.1,85,60,45,30.38,29.85,23,11,33,0.17
2013-2-1,20.7,14.0,7.7,3.9,-1.6,-8.1,64,49,41,30.70,30.38,17,7,23,0.00
2013-2-2,32.5,26.4,16.0,26.6,19.1,3.9,87,74,53,30.53,30.26,17,7,20,0.00
2013-2-3,31.3,31.3,31.3,24.3,24.3,24.3,75,75,75,30.28,30.28,4,4,8,0.00
2013-2-4,39.0,33.1,24.3,33.9,26.3,16.3,92,76,57,30.28,30.03,17,5,21,0.02
2013-2-5,44.4,35.8,28.8,34.9,28.8,23.3,93,76,63,30.25,30.01,14,4,19,0.00
2013-2-6,40.3,34.6,28.8,32.3,26.5,23.0,82,72,63,30.47,30.17,11,3,13,0.00
2013-2-7,62.8,44.8,30.9,45.7,33.6,25.9,86,67,35,30.41,30.06,11,3,14,0.02
2013-2-8,51.4,37.6,29.7,48.8,31.2,25.2,96,78,67,30.52,30.06,17,6,24,0.08
2013-2-9,44.6,34.1,22.8,26.5,22.0,17.8,84,63,43,30.58,30.34,12,3,14,0.00
2013-2-10,53.2,45.4,34.9,50.1,35.7,20.5,92,70,51,30.34,29.95,30,10,34,0.18
2013-2-11,54.0,46.7,36.5,50.6,32.9,25.1,91,60,43,30.32,29.92,28,11,37,0.81
2013-2-12,51.1,39.0,28.0,29.3,25.6,20.9,79,60,33,30.36,30.13,13,2,16,0.00
2013-2-13,42.4,35.2,30.9,33.5,28.4,25.3,88,76,61,30.14,29.88,13,5,17,0.01
2013-2-14,41.4,34.5,32.0,31.4,30.5,27.7,87,85,65,30.27,30.01,8,5,10,0.01
2013-2-15,44.4,34.7,27.0,31.1,23.7,12.1,85,66,28,30.42,30.11,15,3,19,0.00
2013-2-16,33.8,26.6,21.2,16.2,8.9,-1.6,75,49,25,30.39,30.19,13,4,19,0.00
2013-2-17,25.3,18.3,17.1,11.7,4.6,2.0,69,55,46,30.36,30.25,6,2,9,0.00
2013-2-18,57.6,23.7,17.1,43.3,10.5,2.9,83,57,37,30.30,29.81,33,5,41,0.41
2013-2-19,48.6,33.1,25.7,43.5,21.5,7.2,90,63,45,30.28,29.73,35,12,45,0.77
2013-2-20,34.2,25.7,18.1,13.5,6.5,1.4,64,44,27,30.42,30.14,11,5,16,0.00
2013-2-21,36.5,27.5,18.9,28.0,16.7,8.6,86,64,46,30.42,30.05,16,3,23,0.01
2013-2-22,41.9,37.0,32.0,37.7,33.2,26.8,99,86,69,30.58,29.81,19,4,23,0.13
2013-2-23,45.7,35.9,27.9,27.3,23.0,19.6,76,60,36,30.12,29.95,13,4,14,0.00
2013-2-24,48.2,34.3,22.3,26.2,22.0,16.8,80,62,38,30.27,29.97,8,2,10,0.00
2013-2-25,50.9,38.4,26.1,24.4,22.1,18.3,79,54,31,30.22,29.94,15,4,19,0.00
2013-2-26,47.7,43.6,39.2,46.5,37.6,22.1,97,81,45,29.93,29.33,15,6,21,0.40
2013-2-27,46.2,46.2,46.2,43.2,43.2,43.2,89,89,89,29.53,29.53,8,8,13,0.40
2013-2-28,46.2,46.2,46.2,43.2,43.2,43.2,89,89,89,29.53,29.53,8,8,13,0.40
2013-3-1,46.2,46.2,46.2,43.2,43.2,43.2,89,89,89,29.53,29.53,8,8,13,0.40
2013-3-2,46.2,46.2,46.2,43.2,43.2,43.2,89,89,89,29.53,29.53,8,8,13,0.40
2013-3-3,46.2,46.2,46.2,43.2,43.2,43.2,89,89,89,29.53,29.53,8,8,13,0.40
2013-3-4,46.2,46.2,46.2,43.2,43.2,43.2,89,89,89,29.53,29.53,8,8,13,0.40
2013-3-5,46.2,46.2,46.2,43.2,43.2,43.2,89,89,89,29.53,29.53,8,8,13,0.40
2013-3-6,34.7,32.8,30.0,29.0,27.3,24.5,86,80,74,30.18,29.88,8,2,10,0.44
2013-3-7,39.4,34.7,30.9,30.9,27.2,23.1,87,75,58,30.28,30.03,6,1,8,0.04
2013-3-8,50.0,38.9,27.5,28.3,24.8,21.6,84,58,38,30.33,30.13,10,2,13,0.00
2013-3-9,36.5,35.0,31.8,26.6,25.8,21.4,73,69,55,30.22,30.00,7,5,11,0.00
2013-3-10,35.4,35.4,35.4,26.6,26.6,26.6,70,70,70,30.00,30.00,5,5,8,0.00
2013-3-11,54.0,41.5,35.4,53.0,35.1,25.5,98,78,70,30.24,29.87,30,9,35,0.08
2013-3-12,49.6,40.0,34.0,34.1,28.6,23.3,92,65,42,30.30,30.12,20,8,26,0.01
2013-3-13,36.5,31.9,27.5,32.8,22.4,14.7,94,68,48,30.57,30.26,17,6,21,0.01
2013-3-14,48.2,33.7,21.6,34.1,21.3,12.0,97,64,28,30.59,30.42,14,5,18,0.00
2013-3-15,57.0,42.8,27.5,43.3,36.2,26.0,99,80,53,30.42,29.93,11,3,14,0.00
2013-3-16,65.7,51.2,41.4,52.2,42.4,35.2,93,73,54,30.25,29.84,19,6,23,0.00
2013-3-17,41.4,37.3,35.6,36.1,32.8,28.5,93,84,72,30.34,30.15,13,5,18,0.21
2013-3-18,50.0,41.3,36.1,48.0,39.4,34.3,99,93,83,30.15,29.85,15,6,24,0.63
2013-3-19,47.5,38.1,28.4,37.2,19.2,5.3,95,51,21,30.37,30.08,24,8,32,0.11
2013-3-20,37.9,32.0,26.1,20.2,12.3,1.6,68,45,24,30.36,30.09,21,5,24,0.00
2013-3-21,38.1,27.9,20.8,13.9,7.5,-0.3,73,44,21,30.22,29.92,12,3,14,0.00
2013-3-22,47.1,33.7,19.0,26.3,14.5,7.1,77,48,20,29.95,29.78,14,2,21,0.00
2013-3-23,55.9,44.8,37.0,28.4,22.4,14.6,65,43,21,29.98,29.69,12,3,14,0.00
2013-3-24,43.9,37.5,33.1,34.3,30.5,24.2,99,78,47,29.80,28.28,12,3,17,0.08
2013-3-25,36.0,33.1,30.4,32.8,30.6,28.6,99,91,81,29.91,29.29,11,3,15,0.19
2013-3-26,43.2,36.5,31.8,32.8,27.3,21.7,93,71,45,30.19,29.81,12,5,17,0.02
2013-3-27,47.1,37.9,26.1,30.8,23.8,19.5,85,58,35,30.24,30.04,11,3,14,0.00
2013-3-28,52.7,40.6,25.5,30.1,24.2,20.2,85,56,32,30.26,29.91,10,2,13,0.00
2013-3-29,57.9,44.2,30.6,33.7,28.8,20.6,91,59,25,29.91,29.72,10,2,14,0.00
2013-3-30,60.8,47.0,30.4,41.8,34.3,27.8,92,65,35,30.21,29.42,18,4,21,0.00
2013-3-31,62.1,52.3,46.8,50.5,45.2,38.9,99,79,44,30.17,29.08,18,4,26,0.12
2013-4-1,51.3,44.8,36.9,42.5,25.9,12.7,87,51,22,29.99,29.40,13,5,17,0.00
2013-4-2,51.8,39.1,26.8,23.1,14.9,6.0,67,40,19,30.13,29.86,11,3,15,0.00
2013-4-3,51.8,40.1,27.5,22.4,14.8,7.7,75,40,19,30.22,29.97,14,3,20,0.00
2013-4-4,61.2,47.9,37.8,20.3,16.8,12.0,47,30,17,30.15,29.76,11,2,14,0.00
2013-4-5,52.9,52.9,52.9,15.1,15.1,15.1,22,22,22,29.81,29.81,0,0,2,0.00
2013-4-6,52.9,52.9,52.9,15.1,15.1,15.1,22,22,22,29.81,29.81,0,0,2,0.00
2013-4-7,52.9,52.9,52.9,15.1,15.1,15.1,22,22,22,29.81,29.81,0,0,2,0.00
2013-4-8,52.9,52.9,52.9,15.1,15.1,15.1,22,22,22,29.81,29.81,0,0,2,0.00
2013-4-9,52.9,52.9,52.9,15.1,15.1,15.1,22,22,22,29.81,29.81,0,0,2,0.00
2013-4-10,84.6,74.5,52.9,68.2,63.3,15.1,89,70,22,29.92,29.02,26,10,31,0.38
2013-4-11,76.5,65.2,54.0,65.9,61.7,53.1,99,90,54,29.71,29.55,27,9,35,0.71
2013-4-12,53.8,46.4,40.3,53.0,37.9,33.0,99,73,51,30.10,29.69,24,8,30,0.11
2013-4-13,61.2,48.4,36.7,38.5,35.8,31.9,94,65,34,30.19,30.01,23,7,30,0.05
2013-4-14,73.4,57.5,41.0,49.7,42.6,36.8,94,62,32,30.18,29.75,22,6,29,0.00
2013-4-15,73.8,63.7,55.0,57.8,54.1,47.5,88,72,54,30.14,29.69,17,7,21,0.00
2013-4-16,77.7,64.9,56.7,69.0,61.1,53.4,99,88,71,30.25,29.98,22,6,27,0.15
2013-4-17,77.0,64.1,56.5,71.0,62.2,56.0,99,94,78,30.31,29.91,19,6,23,0.06
2013-4-18,82.8,73.3,63.7,67.6,61.4,55.2,96,69,45,29.94,29.32,34,14,41,0.58
2013-4-19,75.6,45.8,39.6,64.5,39.1,15.1,99,78,53,30.18,29.42,100,10,100,0.56
2013-4-20,56.7,44.8,33.8,37.8,30.8,16.9,96,62,22,30.56,30.06,13,4,15,0.00
2013-4-21,61.7,48.5,36.3,32.8,28.8,21.7,75,49,22,30.66,30.28,13,3,21,0.00
2013-4-22,72.9,56.0,37.4,45.5,37.0,29.2,88,52,25,30.51,29.73,10,2,15,0.00
2013-4-23,69.1,60.9,47.7,58.4,50.7,42.0,88,70,61,30.28,29.92,20,7,26,0.01
2013-4-24,68.0,49.1,37.8,58.8,44.8,35.7,99,86,62,30.38,29.92,27,4,35,0.59
2013-4-25,62.4,47.6,32.2,42.2,34.6,22.7,99,66,24,30.55,30.23,22,5,27,0.00
2013-4-26,64.9,51.0,35.2,41.6,35.7,25.9,99,61,25,30.60,30.32,14,3,21,0.00
2013-4-27,62.1,54.6,46.8,56.4,48.3,39.9,99,80,62,30.49,30.15,13,4,16,0.00
2013-4-28,65.5,59.3,54.7,61.0,56.8,53.9,99,92,73,30.15,29.94,17,6,20,0.01
2013-4-29,69.6,60.8,54.1,57.3,55.7,52.3,99,85,58,30.17,29.69,11,4,15,0.00
2013-4-30,81.9,65.9,49.5,59.6,55.1,48.9,99,72,39,30.18,29.07,14,5,20,0.00
2013-5-1,85.8,70.7,54.5,62.1,56.6,53.2,99,66,34,30.29,28.74,11,2,14,0.00
2013-5-2,79.2,69.9,62.4,60.9,57.1,54.1,82,65,44,30.25,29.20,15,5,21,0.00
2013-5-3,78.4,68.4,62.2,64.7,59.4,56.5,97,75,48,30.14,29.46,18,5,22,0.09
2013-5-4,64.2,60.1,54.9,60.0,51.9,44.6,99,76,52,30.15,29.75,14,4,17,0.09
2013-5-5,55.6,54.2,52.9,55.3,53.3,51.8,99,97,89,30.14,30.04,10,4,17,0.74
2013-5-6,70.2,61.5,55.4,58.4,56.4,53.7,99,84,64,30.07,29.95,12,4,17,0.06
2013-5-7,72.5,64.5,58.1,60.4,58.1,54.9,99,81,55,30.13,29.81,12,3,14,0.00
2013-5-8,81.9,67.5,55.0,62.0,58.1,51.0,99,75,38,30.16,29.13,10,2,15,0.00
2013-5-9,82.4,68.4,56.1,65.1,59.6,50.3,99,77,35,30.14,29.37,18,4,24,0.02
2013-5-10,68.7,67.6,67.6,63.2,63.0,62.0,85,85,80,29.64,29.62,10,3,14,0.00
2013-5-11,67.6,67.6,67.6,63.0,63.0,63.0,85,85,85,29.64,29.64,3,3,7,0.00
2013-5-12,67.6,67.6,67.6,63.0,63.0,63.0,85,85,85,29.64,29.64,3,3,7,0.00
2013-5-13,67.6,67.6,67.6,63.0,63.0,63.0,85,85,85,29.64,29.64,3,3,7,0.00
2013-5-14,67.6,67.6,67.6,63.0,63.0,63.0,85,85,85,29.64,29.64,3,3,7,0.00
2013-5-15,86.0,62.4,35.2,63.0,43.3,-56.6,97,71,1,34.94,29.64,15,3,18,15.89
2013-5-16,77.5,70.4,63.3,67.6,62.8,58.3,97,78,59,30.13,29.72,16,6,21,0.12
2013-5-17,80.6,69.5,58.8,70.2,63.6,56.4,99,83,48,30.42,29.67,19,3,24,0.01
2013-5-18,68.5,65.5,65.1,65.2,64.7,64.3,98,97,89,30.31,30.24,1,0,2,0.00
2013-5-19,65.1,65.1,65.1,64.6,64.6,64.6,98,98,98,30.31,30.31,0,0,2,0.00
2013-5-20,65.1,65.1,65.1,64.6,64.6,64.6,98,98,98,30.31,30.31,0,0,2,0.00
2013-5-21,85.1,74.8,63.5,70.1,64.3,59.8,99,72,48,32.06,29.44,25,8,31,0.28
2013-5-22,78.1,72.1,65.8,67.4,64.6,60.2,98,78,55,30.06,29.50,23,9,27,0.00
2013-5-23,71.6,64.1,53.8,69.5,58.6,49.3,98,83,64,30.53,29.92,11,4,17,1.85
2013-5-24,68.4,57.2,47.5,49.7,44.4,36.3,99,67,32,30.83,30.42,12,5,16,15.97
2013-5-25,69.8,58.1,44.6,55.2,46.4,38.6,99,70,34,30.84,29.62,9,2,12,0.06
2013-5-26,71.8,62.1,53.2,58.1,53.4,49.0,95,75,52,29.91,29.36,12,3,14,0.02
2013-5-27,86.0,71.8,59.2,65.1,60.2,57.0,98,70,44,29.70,29.11,31,9,37,0.28
2013-5-28,86.2,77.1,67.1,69.3,65.3,62.3,90,68,50,29.46,28.61,31,11,38,0.04
2013-5-29,89.1,78.5,67.3,66.7,62.7,57.9,84,60,36,29.45,28.69,21,8,27,0.00
2013-5-30,90.0,79.3,69.6,71.3,67.5,64.8,90,69,46,29.50,28.80,27,9,35,0.00
2013-5-31,77.7,74.4,69.6,73.9,70.3,67.1,98,87,75,29.36,28.98,20,8,24,0.43
2013-6-1,79.5,72.9,66.6,72.8,68.6,66.3,99,87,66,29.27,28.54,21,8,30,0.14
2013-6-2,78.6,71.0,64.9,67.9,63.7,59.7,99,79,56,29.35,28.54,14,4,17,0.00
2013-6-3,75.2,64.3,56.7,60.2,53.5,48.6,87,69,47,29.63,29.03,11,4,14,0.00
2013-6-4,78.6,66.3,52.3,57.4,53.4,50.1,98,66,39,29.73,28.98,12,2,20,0.00
2013-6-5,83.5,71.8,59.4,64.1,57.3,49.6,83,61,45,29.65,28.69,8,2,12,0.00
2013-6-6,78.8,71.2,66.6,70.2,66.3,64.1,99,85,64,29.23,28.62,9,2,13,0.13
2013-6-7,79.9,69.9,63.1,66.1,62.0,56.6,98,78,48,29.28,28.99,12,3,17,0.00
2013-6-8,82.6,70.9,63.0,66.9,62.3,57.3,96,76,44,29.41,29.14,8,2,11,0.01
2013-6-9,82.6,73.0,63.1,71.7,66.0,57.7,99,80,45,29.48,29.15,17,5,19,0.09
2013-6-10,77.4,71.5,66.6,70.1,66.9,63.3,99,86,67,29.26,28.66,21,6,24,0.22
2013-6-11,87.6,76.5,65.3,70.8,66.2,62.7,95,73,46,29.40,28.72,12,4,19,0.00
2013-6-12,92.5,82.5,69.4,77.6,73.2,67.9,99,75,53,29.26,28.72,25,6,30,0.00
2013-6-13,85.3,78.4,68.7,75.4,65.5,53.4,87,66,43,29.16,28.63,21,8,27,0.08
2013-6-14,84.6,71.0,57.0,64.3,58.8,53.7,95,68,42,29.58,28.75,10,2,14,0.00
2013-6-15,87.1,74.7,60.6,67.4,62.8,58.8,99,70,43,29.63,28.66,18,4,22,0.00
2013-6-16,81.0,73.8,69.6,72.5,68.6,65.4,99,84,62,29.37,28.92,9,2,13,0.09
2013-6-17,91.0,76.1,66.6,73.7,69.3,65.5,99,82,45,29.28,28.82,24,2,30,0.08
2013-6-18,89.6,72.3,65.1,70.6,66.6,57.3,99,85,46,29.32,28.64,22,2,31,0.80
2013-6-19,84.9,72.9,63.7,66.3,63.4,60.5,99,75,46,29.50,28.86,7,2,10,0.00
2013-6-20,89.1,75.5,62.2,67.1,63.0,56.3,97,69,35,29.64,28.87,10,2,11,0.00
2013-6-21,90.0,77.6,63.3,72.4,66.3,61.1,95,71,43,29.67,28.91,12,3,15,0.00
2013-6-22,89.6,75.7,68.4,74.7,70.8,67.8,99,86,56,29.47,28.72,22,4,27,0.60
2013-6-23,86.4,74.6,66.0,76.0,71.1,65.8,99,90,62,29.42,29.07,18,3,29,1.38
2013-6-24,77.9,77.9,77.9,73.4,73.4,73.4,86,86,86,29.17,29.17,3,3,4,0.00
2013-6-25,77.9,77.9,77.9,73.4,73.4,73.4,86,86,86,29.17,29.17,3,3,4,0.00
2013-6-26,84.2,72.6,67.5,78.2,70.6,67.2,99,94,77,29.95,29.17,28,5,41,2.24
2013-6-27,92.1,78.6,69.1,77.1,72.7,68.8,99,84,52,30.01,29.75,10,2,13,0.00
2013-6-28,88.9,79.1,67.6,74.0,67.2,59.1,98,70,38,29.86,29.56,14,3,24,0.30
2013-6-29,80.4,70.4,63.9,71.8,67.4,63.0,99,91,64,30.01,29.64,15,2,24,0.35
2013-6-30,78.8,70.9,66.0,70.6,67.6,64.3,99,90,63,30.05,29.78,12,3,15,0.00
2013-7-1,76.5,69.9,65.1,71.6,67.6,63.9,99,92,81,30.16,29.88,14,4,17,0.18
2013-7-2,81.9,72.6,66.2,71.8,68.1,65.9,99,86,64,30.32,29.99,9,3,13,0.01
2013-7-3,83.1,72.4,62.8,71.3,67.1,61.9,99,85,57,30.47,30.10,12,3,15,0.00
2013-7-4,73.2,70.7,67.6,71.7,69.7,67.2,99,97,92,30.38,30.15,7,2,9,0.02
2013-7-5,80.6,72.9,66.4,72.9,69.7,66.1,99,90,72,30.40,30.02,8,2,10,0.01
2013-7-6,75.4,71.4,68.0,72.7,69.4,67.6,99,94,80,30.34,30.06,9,2,11,0.22
2013-7-7,67.8,65.6,65.5,67.6,65.3,65.2,99,99,99,30.26,30.22,2,0,2,0.00
2013-7-8,65.5,65.5,65.5,65.2,65.2,65.2,99,99,99,30.26,30.26,0,0,2,0.00
2013-7-9,65.5,65.5,65.5,65.2,65.2,65.2,99,99,99,30.26,30.26,0,0,2,0.00
2013-7-10,140.0,65.5,65.5,65.2,65.2,65.2,99,99,99,30.26,29.92,0,0,2,0.02
2013-7-11,81.5,74.9,68.9,71.6,64.0,59.3,98,71,51,30.38,29.88,17,6,25,0.02
2013-7-12,82.4,72.6,61.7,64.0,59.7,55.1,94,67,41,30.49,30.05,14,4,18,0.00
2013-7-13,85.8,75.4,64.0,69.4,65.2,61.9,97,72,50,30.38,30.13,9,2,13,0.00
2013-7-14,91.6,80.3,68.2,76.0,71.2,66.8,98,76,52,30.46,30.14,14,2,21,0.01
2013-7-15,91.4,81.6,72.3,76.4,72.8,69.1,99,77,50,30.43,30.29,13,3,15,0.00
2013-7-16,95.7,83.3,71.1,77.7,73.5,69.3,99,75,46,30.43,30.12,6,1,8,0.00
2013-7-17,93.9,83.8,73.8,78.5,75.4,71.9,99,78,49,30.45,30.15,11,2,14,0.00
2013-7-18,95.7,85.2,75.0,78.6,75.6,69.7,99,76,44,30.35,30.03,8,2,11,0.00
2013-7-19,92.5,83.0,74.1,78.8,75.8,73.4,99,80,57,30.15,29.91,14,4,16,0.00
2013-7-20,89.8,77.4,71.1,76.3,73.4,66.0,98,88,58,30.07,29.92,23,4,35,0.39
2013-7-21,88.7,78.2,68.4,74.2,70.8,67.3,99,80,54,30.19,29.87,9,1,11,0.01
2013-7-22,86.5,76.0,70.3,75.8,72.5,69.8,99,90,63,30.00,29.81,11,2,15,0.14
2013-7-23,88.0,77.7,68.4,79.2,72.9,66.9,99,86,58,30.01,29.76,15,3,21,0.00
2013-7-24,78.4,69.9,60.4,67.1,60.2,57.7,93,72,52,30.39,29.92,14,5,17,0.00
2013-7-25,79.9,69.3,57.9,62.1,58.2,55.2,97,70,45,30.50,29.98,11,3,14,0.00
2013-7-26,82.6,70.0,56.3,67.4,62.3,56.0,99,79,50,30.50,29.95,8,2,11,0.00
2013-7-27,81.0,71.0,63.9,69.8,63.7,56.2,99,80,45,30.22,29.79,13,4,17,0.24
2013-7-28,75.4,64.6,50.2,60.0,54.1,49.9,99,72,44,30.49,29.94,13,3,17,0.00
2013-7-29,82.8,69.3,54.7,63.4,58.7,53.9,99,73,43,30.59,30.00,10,2,13,0.00
2013-7-30,79.9,68.7,60.4,70.2,64.0,59.3,99,87,55,30.58,30.06,9,2,12,0.06
2013-7-31,77.9,71.2,65.5,72.4,68.7,65.2,99,92,78,30.25,30.03,8,3,11,0.01
2013-8-1,85.3,74.3,64.6,71.0,65.6,58.0,99,78,43,30.23,29.99,11,2,14,0.07
2013-8-2,83.3,72.2,58.5,70.2,65.1,58.0,99,80,56,30.44,29.98,14,3,18,0.00
2013-8-3,85.8,76.5,69.8,73.3,69.0,62.2,97,78,61,30.27,30.00,12,3,16,0.00
2013-8-4,80.6,70.7,58.8,62.3,57.5,52.0,93,66,38,30.56,30.18,13,3,16,0.00
2013-8-5,82.9,69.8,55.0,65.8,59.8,54.2,99,74,41,30.57,30.10,8,2,12,0.00
2013-8-6,84.2,74.7,65.1,75.0,69.2,62.3,97,83,72,30.28,30.03,9,2,11,0.00
2013-8-7,85.5,77.6,69.6,77.0,73.8,69.2,99,88,70,30.11,29.93,10,3,12,0.00
2013-8-8,92.3,79.7,72.9,77.0,73.8,70.1,99,84,51,30.02,29.95,11,2,14,0.96
2013-8-9,85.3,77.4,72.1,76.3,72.5,69.0,99,86,63,30.11,29.90,10,2,14,0.00
2013-8-10,89.6,78.2,71.6,74.5,70.9,67.5,96,80,52,30.17,29.95,9,2,10,0.00
2013-8-11,88.9,78.3,68.2,73.9,69.3,63.6,99,77,45,30.26,29.92,10,1,13,0.00
2013-8-12,84.6,74.4,63.1,75.2,69.9,62.3,99,87,67,30.32,29.82,10,2,13,0.00
2013-8-13,79.0,73.0,61.3,74.5,65.3,51.4,99,79,56,30.31,29.99,15,4,22,0.00
2013-8-14,73.6,63.4,53.8,54.5,52.1,48.5,92,69,44,30.64,30.09,15,4,20,0.00
2013-8-15,76.1,63.9,50.7,58.5,54.4,50.5,99,73,49,30.65,30.08,10,2,11,0.00
2013-8-16,80.2,68.8,54.9,60.9,57.3,54.0,99,69,45,30.59,30.06,11,2,16,0.00
2013-8-17,77.7,71.1,59.9,65.2,61.4,56.3,93,72,63,30.54,30.26,5,1,7,0.00
2013-8-18,77.7,77.7,77.7,64.2,64.2,64.2,63,63,63,30.36,30.36,2,2,4,0.00
2013-8-19,77.7,77.7,77.7,64.2,64.2,64.2,63,63,63,30.36,30.36,2,2,4,0.00
2013-8-20,77.7,77.7,77.7,64.2,64.2,64.2,63,63,63,30.36,30.36,2,2,4,0.00
2013-8-21,77.7,77.7,77.7,64.2,64.2,64.2,63,63,63,30.36,30.36,2,2,4,0.00
2013-8-22,77.7,77.7,77.7,64.2,64.2,64.2,63,63,63,30.36,30.36,2,2,4,0.00
2013-8-23,77.7,77.7,77.7,64.2,64.2,64.2,63,63,63,30.36,30.36,2,2,4,0.00
2013-8-24,77.7,77.7,77.7,64.2,64.2,64.2,63,63,63,30.36,30.36,2,2,4,0.00
2013-8-25,77.7,77.7,77.7,64.2,64.2,64.2,63,63,63,30.36,30.36,2,2,4,0.00
2013-8-26,77.7,77.7,77.7,64.2,64.2,64.2,63,63,63,30.36,30.36,2,2,4,0.00
2013-8-27,93.9,82.3,72.5,77.5,71.5,64.2,99,71,51,30.36,29.65,11,3,15,0.09
2013-8-28,97.3,84.7,74.5,75.9,73.1,69.2,99,72,42,29.81,29.58,15,4,19,0.00
2013-8-29,91.6,82.3,73.6,76.9,72.1,65.3,99,74,45,29.82,29.58,11,2,13,0.00
2013-8-30,95.5,80.7,66.6,74.8,70.7,66.3,99,75,43,29.90,29.53,9,2,13,0.00
2013-8-31,98.8,82.0,71.2,77.5,73.6,70.1,98,79,43,29.75,29.45,16,4,21,0.28
2013-9-1,89.8,77.0,68.0,75.6,71.7,67.7,99,85,56,29.73,29.58,10,2,13,0.01
2013-9-2,89.8,77.9,68.2,74.1,69.0,63.0,99,77,46,29.80,29.54,10,2,15,0.00
2013-9-3,78.1,69.4,61.2,64.4,58.1,53.1,94,70,44,30.01,29.68,14,4,18,0.00
2013-9-4,85.6,69.5,54.5,63.6,58.9,53.7,99,73,42,30.27,29.80,8,1,11,0.00
2013-9-5,89.1,72.1,58.1,67.0,62.1,57.8,99,75,38,30.29,29.85,9,1,12,0.00
2013-9-6,87.3,73.3,60.6,65.8,60.0,54.5,92,65,43,30.25,29.80,7,2,9,0.00
2013-9-7,90.9,74.8,59.5,69.1,63.5,58.4,97,71,40,30.20,29.67,11,2,15,0.00
2013-9-8,93.4,78.2,67.8,74.1,69.5,66.4,99,77,44,29.94,29.65,8,2,15,0.00
2013-9-9,95.5,80.5,65.7,73.4,69.9,65.4,99,74,43,29.88,29.66,14,4,17,0.00
2013-9-10,95.9,78.4,72.0,76.1,73.3,70.5,99,86,46,30.06,29.78,14,2,18,0.38
2013-9-11,96.1,79.9,69.3,75.8,71.2,63.8,99,79,36,30.13,29.89,8,2,12,0.01
2013-9-12,82.8,75.9,70.3,74.8,70.6,54.8,99,84,56,30.00,29.75,10,2,14,0.11
2013-9-13,70.2,64.1,55.8,58.7,50.3,43.3,94,63,40,30.22,29.86,19,6,24,0.00
2013-9-14,74.3,60.0,46.4,50.2,46.6,40.2,99,66,31,30.43,29.95,7,2,10,0.00
2013-9-15,82.0,63.8,46.2,60.3,51.5,43.9,99,69,27,30.36,29.94,11,2,18,0.00
2013-9-16,70.3,66.1,59.2,62.3,59.9,55.2,94,81,66,30.37,30.11,11,2,17,0.01
2013-9-17,78.8,65.2,53.8,58.3,54.9,52.3,96,72,42,30.53,30.06,9,2,14,0.00
2013-9-18,79.5,67.2,57.0,69.9,63.5,55.7,99,88,71,30.36,29.97,8,2,12,0.50
2013-9-19,83.3,71.2,64.9,75.0,69.3,64.7,99,94,70,30.21,29.90,16,3,21,0.99
2013-9-20,86.2,73.1,68.0,73.3,70.2,67.7,99,91,61,30.00,29.73,17,4,24,0.60
2013-9-21,74.1,65.0,54.5,68.3,56.9,47.2,99,78,41,29.95,29.69,12,3,19,0.96
2013-9-22,56.3,50.8,47.8,53.1,50.0,47.6,99,97,85,30.21,29.95,4,0,6,0.14
2013-9-23,50.4,50.4,50.4,50.1,50.1,50.1,99,99,99,30.20,30.20,0,0,0,0.00
2013-9-24,50.4,50.4,50.4,50.1,50.1,50.1,99,99,99,30.20,30.20,0,0,0,0.00
2013-9-25,50.4,50.4,50.4,50.1,50.1,50.1,99,99,99,30.20,30.20,0,0,0,0.00
2013-9-26,50.4,50.4,50.4,50.1,50.1,50.1,99,99,99,30.20,30.20,0,0,0,0.00
2013-9-27,50.4,50.4,50.4,50.1,50.1,50.1,99,99,99,30.20,30.20,0,0,0,0.00
2013-9-28,50.4,50.4,50.4,50.1,50.1,50.1,99,99,99,30.20,30.20,0,0,0,0.00
2013-9-29,50.4,50.4,50.4,50.1,50.1,50.1,99,99,99,30.20,30.20,0,0,0,0.00
2013-9-30,50.4,50.4,50.4,50.1,50.1,50.1,99,99,99,30.20,30.20,0,0,0,0.00
2013-10-1,50.4,50.4,50.4,50.1,50.1,50.1,99,99,99,30.20,30.20,0,0,0,0.00
2013-10-2,77.0,55.4,50.4,71.7,54.9,50.1,99,98,81,30.20,29.88,10,0,11,4.45
2013-10-3,83.8,73.1,67.6,70.7,68.4,66.4,99,87,57,30.18,29.59,16,5,20,0.44
2013-10-4,85.5,75.9,64.2,73.0,68.7,63.4,99,81,59,30.25,29.57,14,5,17,0.87
2013-10-5,84.4,84.4,84.4,69.0,69.0,69.0,60,60,60,29.59,29.59,10,10,17,0.00
2013-10-6,84.4,66.7,52.3,69.0,61.5,45.1,99,85,60,30.16,29.59,14,6,17,2.48
2013-10-7,65.3,54.4,46.2,49.5,47.1,44.1,99,78,52,30.52,30.16,11,3,17,0.34
2013-10-8,71.8,56.5,42.8,56.6,46.3,39.3,99,74,32,30.59,30.19,11,2,14,0.26
2013-10-9,77.4,59.0,45.3,55.6,50.1,44.5,99,77,37,30.58,29.92,8,1,10,0.27
2013-10-10,78.1,60.2,46.0,56.7,50.1,45.2,99,75,35,30.55,29.79,8,1,9,0.48
2013-10-11,79.5,61.4,46.0,57.9,51.2,45.2,99,75,35,30.46,29.56,8,1,10,0.18
2013-10-12,80.8,63.5,47.7,61.4,55.3,47.4,99,79,41,30.44,29.97,11,1,15,0.54
2013-10-13,75.4,65.3,55.8,63.4,53.6,42.1,99,69,34,30.60,30.07,14,4,18,0.25
2013-10-14,74.5,59.3,46.6,52.2,47.1,43.0,94,67,35,30.69,30.22,9,3,13,0.24
2013-10-15,71.1,61.2,52.5,66.9,59.8,50.8,99,95,77,30.47,30.27,13,4,15,0.25
2013-10-16,65.3,60.5,48.9,64.9,55.3,46.9,99,84,55,30.33,30.18,12,3,14,0.54
2013-10-17,59.5,49.5,42.6,52.1,46.4,42.3,99,90,65,30.33,30.15,13,2,17,0.40
2013-10-18,68.9,53.3,39.6,53.1,44.9,39.3,99,77,41,30.36,30.12,17,4,21,0.07
2013-10-19,54.9,48.4,41.0,47.9,44.1,37.4,99,86,53,30.37,30.10,8,2,12,0.18
2013-10-20,64.4,49.9,36.1,45.3,41.2,34.3,99,76,43,30.38,30.20,18,6,25,0.02
2013-10-21,67.1,53.8,41.7,50.9,45.5,39.7,97,76,50,30.35,30.22,19,6,25,0.30
2013-10-22,55.2,46.1,32.2,43.4,32.5,24.5,95,62,32,30.38,30.14,12,2,15,0.47
2013-10-23,50.7,44.2,38.8,46.3,37.8,30.3,99,80,49,30.42,29.98,16,4,21,0.26
2013-10-24,43.3,39.3,32.5,39.0,34.6,29.7,93,83,71,30.65,30.30,11,2,15,0.21
2013-10-25,52.9,38.2,27.0,33.7,26.9,19.8,97,69,28,30.75,30.56,14,2,16,0.13
2013-10-26,59.4,43.5,29.1,42.4,33.7,24.8,88,70,48,30.62,30.31,23,6,27,0.46
2013-10-27,61.9,45.3,31.8,41.5,35.3,30.8,99,73,32,30.47,30.28,8,1,11,0.53
2013-10-28,66.0,45.7,29.1,42.5,34.8,27.9,99,73,26,30.64,30.32,6,1,8,0.21
2013-10-29,57.2,46.5,34.5,52.4,43.2,34.0,99,89,73,30.63,30.40,8,1,10,0.28
2013-10-30,67.5,60.0,52.7,66.7,59.4,52.2,99,98,97,30.51,30.32,8,3,11,0.26
2013-10-31,68.4,64.3,59.2,66.7,61.8,56.9,99,92,78,30.33,29.71,28,12,32,1.22
2013-11-1,66.7,57.0,48.4,58.5,49.0,42.3,99,77,42,30.14,29.80,23,7,30,0.84
2013-11-2,59.2,49.8,39.2,46.7,41.0,36.1,99,73,49,30.47,30.04,11,2,16,0.00
2013-11-3,57.6,44.5,33.4,43.8,35.5,30.1,99,74,37,30.68,30.37,9,1,11,0.00
2013-11-4,57.7,49.7,39.2,45.8,41.1,34.4,87,73,58,30.66,30.48,16,4,20,0.00
2013-11-5,64.2,55.2,49.6,49.7,46.1,43.4,97,73,50,30.68,30.52,11,4,14,0.30
2013-11-6,62.1,56.1,43.9,60.0,51.2,43.1,99,85,59,30.52,30.25,18,7,21,0.39
2013-11-7,53.2,43.8,36.0,43.2,32.9,18.5,99,70,27,30.61,30.36,11,3,14,0.06
2013-11-8,55.9,41.6,28.8,36.4,30.5,24.8,97,68,30,30.67,30.50,10,2,13,0.00
2013-11-9,63.7,50.1,35.6,43.3,36.0,28.0,79,60,39,30.56,30.33,28,9,34,0.96
2013-11-10,57.2,47.0,32.7,44.1,31.9,18.6,87,60,25,30.70,30.39,11,3,14,0.00
2013-11-11,62.4,43.9,28.4,46.7,33.7,22.8,99,73,23,30.63,30.33,22,5,27,0.91
2013-11-12,39.4,32.8,27.3,35.7,23.1,15.8,99,69,38,30.98,30.57,21,7,28,1.29
2013-11-13,42.3,30.6,19.9,25.3,18.6,10.7,89,64,29,30.98,30.72,14,3,17,0.00
2013-11-14,56.7,41.1,26.6,26.2,18.8,12.0,71,45,18,30.72,30.41,21,7,25,0.00
2013-11-15,52.3,44.9,35.6,47.6,32.5,21.4,99,63,45,30.51,30.34,13,6,16,0.00
2013-11-16,60.4,54.2,47.5,59.8,52.8,46.6,99,95,86,30.44,30.20,21,10,24,0.00
2013-11-17,70.2,62.1,52.5,65.8,58.1,42.1,99,87,55,30.20,29.78,39,14,44,0.66
2013-11-18,55.9,48.3,38.7,42.8,34.8,23.7,86,61,31,30.56,30.18,15,6,21,0.00
2013-11-19,44.4,37.1,30.9,30.8,27.8,24.4,83,69,55,30.67,30.44,11,2,15,0.00
2013-11-20,53.2,40.2,28.4,35.5,30.0,24.8,89,69,42,30.61,30.42,14,4,17,0.00
2013-11-21,58.3,51.0,43.2,51.6,43.3,35.1,99,76,64,30.58,30.42,12,4,14,0.00
2013-11-22,53.4,48.7,39.2,52.7,46.1,34.0,99,91,75,30.75,30.41,16,5,20,0.00
2013-11-23,39.6,32.0,24.1,34.9,20.1,6.1,93,64,35,30.93,30.60,17,6,36,0.00
2013-11-24,31.6,23.4,16.7,13.1,7.8,1.7,67,52,30,31.05,30.79,10,3,14,0.00
2013-11-25,37.8,30.2,19.9,30.9,16.1,8.5,93,58,30,30.81,30.39,14,6,17,0.00
2013-11-26,36.9,34.7,32.7,33.1,28.6,24.3,95,79,61,30.51,30.11,13,3,17,0.00
2013-11-27,34.7,26.7,17.8,28.1,14.6,4.4,83,60,47,30.65,30.24,13,5,21,0.00
2013-11-28,39.2,26.5,15.8,14.6,10.8,5.2,73,53,29,30.79,30.55,21,5,25,0.00
2013-11-29,44.1,30.2,17.2,22.9,17.7,10.2,85,61,37,30.97,30.78,7,1,8,0.00
2013-11-30,29.5,29.5,29.5,20.6,20.6,20.6,69,69,69,30.84,30.84,0,0,2,0.00
2013-12-1,29.5,29.5,29.5,20.6,20.6,20.6,69,69,69,30.84,30.84,0,0,2,0.00
2013-12-2,29.5,29.5,29.5,20.6,20.6,20.6,69,69,69,30.84,30.84,0,0,2,0.00
2013-12-3,29.5,29.5,29.5,20.6,20.6,20.6,69,69,69,30.84,30.84,0,0,2,0.00
2013-12-4,63.9,36.7,29.5,57.0,28.6,20.6,88,72,69,30.84,29.92,10,1,13,0.00
2013-12-5,67.8,46.3,30.0,60.9,41.0,25.9,92,82,69,30.42,29.97,15,5,21,0.00
2013-12-6,30.0,26.7,25.7,26.9,23.9,21.9,94,89,84,30.58,30.36,0,0,0,0.00
2013-12-7,24.1,20.5,18.1,11.9,9.9,8.1,69,63,58,30.82,30.63,0,0,0,0.07
2013-12-8,31.3,26.3,19.8,31.0,20.9,11.5,99,80,66,30.65,30.15,10,3,13,0.00
2013-12-9,33.1,29.7,28.0,32.5,22.9,15.8,99,76,57,30.41,30.16,13,6,17,0.00
2013-12-10,28.0,28.0,28.0,16.0,16.0,16.0,60,60,60,30.41,30.41,4,4,8,0.00
2013-12-11,28.0,28.0,28.0,16.0,16.0,16.0,60,60,60,30.41,30.41,4,4,8,0.00
2013-12-12,28.0,28.0,28.0,16.0,16.0,16.0,60,60,60,30.41,30.41,4,4,8,0.00
2013-12-13,28.0,28.0,28.0,16.0,16.0,16.0,60,60,60,30.41,30.41,4,4,8,0.00
2013-12-14,28.0,28.0,28.0,16.0,16.0,16.0,60,60,60,30.41,30.41,4,4,8,0.00
2013-12-15,28.0,28.0,28.0,16.0,16.0,16.0,60,60,60,30.41,30.41,4,4,8,0.00
2013-12-16,28.0,28.0,28.0,16.0,16.0,16.0,60,60,60,30.41,30.41,4,4,8,0.00
2013-12-17,28.0,28.0,28.0,16.0,16.0,16.0,60,60,60,30.41,30.41,4,4,8,0.00
2013-12-18,28.0,28.0,28.0,16.0,16.0,16.0,60,60,60,30.41,30.41,4,4,8,0.00
2013-12-19,28.0,28.0,28.0,16.0,16.0,16.0,60,60,60,30.41,30.41,4,4,8,0.00
2013-12-20,61.7,35.3,28.0,58.9,25.4,16.0,93,67,60,30.41,29.89,18,6,22,0.14
2013-12-21,67.1,57.6,49.5,65.0,56.9,49.2,99,98,90,29.90,29.55,26,6,30,0.33
2013-12-22,62.8,47.2,36.3,61.9,45.2,32.0,99,93,83,30.17,29.49,28,11,34,0.35
2013-12-23,36.5,30.8,26.2,32.1,22.2,15.3,85,70,61,30.50,30.17,13,5,15,0.00
2013-12-24,26.1,18.5,12.6,20.1,5.6,-0.4,80,57,43,30.66,30.48,11,4,16,0.00
2013-12-25,34.5,27.7,20.1,23.5,16.0,11.0,67,61,46,30.51,30.31,14,6,17,0.00
2013-12-26,42.6,35.0,29.1,26.3,23.6,19.9,73,63,44,30.46,30.29,17,5,24,0.00
2013-12-27,52.2,37.2,26.2,32.1,25.7,17.5,77,64,43,30.49,30.38,12,3,14,0.01
2013-12-28,52.9,42.2,33.1,34.6,29.6,24.4,75,62,45,30.39,30.05,16,5,17,0.04
2013-12-29,49.6,39.0,32.2,41.7,35.1,28.3,99,87,62,30.16,29.89,14,6,19,0.01
2013-12-30,32.4,26.4,22.3,30.3,16.1,9.9,94,66,47,30.36,30.16,8,4,11,0.00
2013-12-31,38.3,29.7,22.8,20.9,15.1,10.4,66,55,38,30.47,30.27,13,6,18,0.00
2014-1-1,47.1,35.4,24.1,29.8,24.2,15.8,80,64,46,30.33,30.08,17,4,19,0.00
2014-1-2,39.0,25.1,11.7,33.4,19.5,1.4,98,79,60,30.41,29.93,10,0,13,0.01